createdAt,value
2023-05-12T00:01:50.440Z,82.42
2023-05-12T00:04:16.977Z,82.46
2023-05-12T00:06:43.524Z,82.61
2023-05-12T00:09:10.137Z,82.44
2023-05-12T00:11:38.138Z,83.03
2023-05-12T00:14:04.821Z,83.11
2023-05-12T00:16:31.632Z,82.72
2023-05-12T00:18:58.225Z,82.75
2023-05-12T00:21:24.767Z,83.51
2023-05-12T00:23:51.331Z,82.89
2023-05-12T00:26:17.934Z,82.90
2023-05-12T00:28:44.492Z,82.88
2023-05-12T00:31:11.075Z,82.78
2023-05-12T00:33:37.586Z,83.15
2023-05-12T00:36:04.737Z,82.98
2023-05-12T00:38:31.283Z,83.48
2023-05-12T00:40:57.893Z,83.64
2023-05-12T00:43:24.408Z,83.13
2023-05-12T00:45:51.185Z,83.22
2023-05-12T00:48:18.340Z,83.33
2023-05-12T00:50:45.052Z,83.54
2023-05-12T00:53:12.347Z,83.70
2023-05-12T00:55:39.031Z,82.99
2023-05-12T00:58:05.670Z,83.52
2023-05-12T01:00:32.225Z,82.98
2023-05-12T01:02:58.982Z,83.04
2023-05-12T01:05:38.935Z,83.29
2023-05-12T01:08:06.362Z,83.21
2023-05-12T01:10:33.022Z,82.97
2023-05-12T01:12:59.562Z,82.83
2023-05-12T01:15:26.240Z,82.85
2023-05-12T01:17:57.519Z,82.84
2023-05-12T01:20:26.937Z,83.03
2023-05-12T01:22:55.118Z,83.06
2023-05-12T01:25:24.017Z,83.07
2023-05-12T01:27:50.817Z,83.60
2023-05-12T01:30:19.375Z,83.21
2023-05-12T01:32:46.460Z,82.81
2023-05-12T01:35:13.041Z,82.97
2023-05-12T01:37:39.572Z,83.83
2023-05-12T01:40:06.702Z,83.81
2023-05-12T01:42:33.279Z,83.47
2023-05-12T01:44:59.828Z,83.12
2023-05-12T01:47:26.547Z,83.53
2023-05-12T01:49:54.372Z,83.50
2023-05-12T01:52:20.973Z,83.92
2023-05-12T01:54:47.592Z,83.77
2023-05-12T01:57:14.155Z,83.24
2023-05-12T01:59:40.674Z,83.57
2023-05-12T02:02:07.357Z,83.11
2023-05-12T02:04:34.631Z,83.02
2023-05-12T02:07:01.961Z,82.93
2023-05-12T02:09:28.528Z,82.96
2023-05-12T02:11:55.080Z,83.61
2023-05-12T02:14:21.659Z,83.13
2023-05-12T02:16:52.537Z,83.52
2023-05-12T02:19:20.280Z,83.67
2023-05-12T02:21:49.787Z,83.68
2023-05-12T02:24:19.125Z,82.98
2023-05-12T02:26:45.797Z,82.87
2023-05-12T02:29:12.382Z,83.78
2023-05-12T02:31:39.172Z,83.37
2023-05-12T02:34:06.765Z,83.80
2023-05-12T02:36:33.650Z,84.09
2023-05-12T02:39:00.245Z,83.40
2023-05-12T02:41:26.806Z,83.94
2023-05-12T02:43:53.759Z,83.94
2023-05-12T02:46:20.484Z,83.92
2023-05-12T02:48:47.344Z,83.98
2023-05-12T02:51:13.917Z,83.62
2023-05-12T02:53:40.612Z,83.62
2023-05-12T02:56:07.888Z,84.07
2023-05-12T02:58:35.004Z,84.65
2023-05-12T03:01:09.932Z,84.68
2023-05-12T03:03:38.193Z,84.52
2023-05-12T03:06:06.164Z,84.09
2023-05-12T03:08:32.997Z,84.14
2023-05-12T03:10:59.629Z,84.03
2023-05-12T03:13:26.129Z,84.12
2023-05-12T03:15:52.675Z,84.52
2023-05-12T03:18:19.284Z,84.12
2023-05-12T03:20:45.831Z,84.39
2023-05-12T03:23:12.349Z,84.13
2023-05-12T03:25:38.953Z,84.32
2023-05-12T03:28:05.887Z,83.79
2023-05-12T03:30:33.268Z,84.45
2023-05-12T03:33:00.202Z,83.86
2023-05-12T03:35:27.012Z,84.28
2023-05-12T03:37:53.674Z,84.25
2023-05-12T03:40:20.629Z,84.17
2023-05-12T03:42:47.357Z,84.83
2023-05-12T03:45:13.932Z,84.74
2023-05-12T03:47:40.846Z,84.58
2023-05-12T03:50:08.281Z,84.53
2023-05-12T03:52:35.097Z,84.79
2023-05-12T03:55:01.614Z,84.66
2023-05-12T03:57:28.532Z,84.88
2023-05-12T03:59:55.185Z,84.29
2023-05-12T04:02:21.921Z,84.93
2023-05-12T04:04:48.646Z,85.06
2023-05-12T04:07:15.187Z,84.80
2023-05-12T04:09:41.809Z,85.07
2023-05-12T04:12:08.409Z,84.25
2023-05-12T04:14:42.255Z,84.24
2023-05-12T04:17:09.665Z,84.92
2023-05-12T04:19:36.286Z,84.74
2023-05-12T04:22:02.833Z,84.82
2023-05-12T04:24:29.433Z,84.24
2023-05-12T04:26:57.625Z,84.13
2023-05-12T04:29:24.201Z,84.23
2023-05-12T04:31:50.803Z,84.04
2023-05-12T04:34:17.378Z,84.66
2023-05-12T04:36:44.074Z,83.86
2023-05-12T04:39:10.556Z,84.07
2023-05-12T04:41:37.064Z,83.98
2023-05-12T04:44:03.858Z,84.14
2023-05-12T04:46:30.416Z,84.06
2023-05-12T04:48:57.088Z,84.24
2023-05-12T04:51:23.713Z,83.82
2023-05-12T04:53:50.256Z,84.74
2023-05-12T04:56:16.899Z,84.85
2023-05-12T04:58:43.432Z,84.93
2023-05-12T05:01:12.278Z,83.60
2023-05-12T05:03:39.759Z,81.51
2023-05-12T05:06:06.908Z,80.62
2023-05-12T05:08:33.445Z,79.88
2023-05-12T05:11:00.084Z,78.87
2023-05-12T05:13:26.604Z,77.89
2023-05-12T05:15:54.433Z,77.23
2023-05-12T05:18:24.088Z,76.12
2023-05-12T05:20:57.670Z,75.83
2023-05-12T05:23:25.964Z,76.28
2023-05-12T05:25:52.857Z,75.67
2023-05-12T05:28:19.380Z,75.34
2023-05-12T05:30:45.971Z,74.59
2023-05-12T05:33:13.367Z,74.31
2023-05-12T05:35:40.485Z,74.78
2023-05-12T05:38:07.144Z,74.98
2023-05-12T05:40:44.832Z,74.55
2023-05-12T05:43:15.809Z,74.45
2023-05-12T05:45:42.428Z,73.99
2023-05-12T05:48:09.008Z,73.66
2023-05-12T05:50:35.836Z,74.30
2023-05-12T05:53:02.369Z,73.92
2023-05-12T05:55:28.888Z,74.71
2023-05-12T05:57:55.385Z,74.79
2023-05-12T06:00:22.494Z,74.55
2023-05-12T06:02:49.239Z,75.53
2023-05-12T06:05:15.929Z,76.36
2023-05-12T06:07:42.551Z,77.11
2023-05-12T06:10:09.187Z,77.44
2023-05-12T06:12:35.768Z,77.07
2023-05-12T06:15:02.297Z,77.50
2023-05-12T06:17:30.318Z,77.25
2023-05-12T06:19:58.712Z,77.70
2023-05-12T06:22:25.307Z,77.97
2023-05-12T06:24:52.479Z,77.68
2023-05-12T06:27:19.124Z,77.28
2023-05-12T06:29:45.850Z,77.24
2023-05-12T06:32:12.693Z,77.88
2023-05-12T06:34:39.292Z,78.44
2023-05-12T06:37:06.103Z,78.24
2023-05-12T06:39:32.603Z,78.54
2023-05-12T06:41:59.093Z,79.24
2023-05-12T06:44:25.723Z,78.58
2023-05-12T06:46:52.676Z,77.77
2023-05-12T06:49:19.264Z,77.67
2023-05-12T06:51:46.509Z,77.51
2023-05-12T06:54:13.087Z,77.14
2023-05-12T06:56:39.688Z,76.85
2023-05-12T06:59:06.261Z,77.54
2023-05-12T07:01:33.233Z,77.43
2023-05-12T07:04:00.475Z,77.96
2023-05-12T07:06:27.939Z,78.48
2023-05-12T07:08:55.385Z,78.19
2023-05-12T07:11:22.868Z,76.79
2023-05-12T07:13:50.902Z,73.77
2023-05-12T07:16:18.749Z,74.16
2023-05-12T07:18:46.222Z,74.12
2023-05-12T07:21:13.476Z,72.13
2023-05-12T07:23:40.546Z,73.51
2023-05-12T07:26:07.798Z,73.64
2023-05-12T07:28:36.683Z,72.90
2023-05-12T07:31:07.450Z,73.63
2023-05-12T07:33:36.618Z,72.83
2023-05-12T07:36:04.744Z,72.58
2023-05-12T07:38:32.013Z,70.65
2023-05-12T07:40:59.370Z,70.98
2023-05-12T07:43:26.003Z,69.64
2023-05-12T07:45:52.699Z,69.34
2023-05-12T07:48:19.527Z,70.79
2023-05-12T07:50:46.080Z,69.37
2023-05-12T07:53:12.649Z,68.37
2023-05-12T07:55:39.182Z,69.53
2023-05-12T07:58:05.751Z,69.78
2023-05-12T08:00:32.437Z,68.41
2023-05-12T08:02:59.184Z,68.03
2023-05-12T08:05:25.955Z,68.56
2023-05-12T08:07:52.551Z,68.61
2023-05-12T08:10:19.681Z,67.27
2023-05-12T08:12:46.645Z,65.24
2023-05-12T08:15:13.292Z,66.27
2023-05-12T08:17:39.871Z,65.63
2023-05-12T08:20:07.158Z,66.76
2023-05-12T08:22:33.872Z,65.97
2023-05-12T08:25:00.443Z,64.42
2023-05-12T08:27:27.033Z,65.00
2023-05-12T08:29:53.626Z,63.98
2023-05-12T08:32:20.318Z,62.65
2023-05-12T08:34:47.014Z,63.07
2023-05-12T08:37:14.051Z,62.08
2023-05-12T08:39:40.961Z,64.04
2023-05-12T08:42:22.558Z,63.17
2023-05-12T08:44:49.746Z,63.26
2023-05-12T08:47:18.806Z,63.08
2023-05-12T08:49:51.084Z,62.75
2023-05-12T08:52:22.174Z,60.36
2023-05-12T08:54:55.877Z,60.51
2023-05-12T08:57:23.725Z,61.60
2023-05-12T08:59:56.030Z,59.71
2023-05-12T09:02:24.500Z,61.44
2023-05-12T09:04:52.215Z,59.67
2023-05-12T09:07:19.923Z,54.95
2023-05-12T09:09:48.885Z,57.58
2023-05-12T09:12:18.217Z,56.95
2023-05-12T09:14:49.505Z,58.22
2023-05-12T09:17:16.089Z,58.64
2023-05-12T09:19:42.618Z,60.03
2023-05-12T09:22:14.791Z,58.15
2023-05-12T09:24:41.478Z,59.05
2023-05-12T09:27:08.141Z,57.54
2023-05-12T09:29:42.492Z,57.83
2023-05-12T09:32:18.305Z,57.49
2023-05-12T09:34:44.883Z,57.03
2023-05-12T09:37:12.717Z,57.22
2023-05-12T09:39:41.098Z,57.67
2023-05-12T09:42:12.696Z,57.68
2023-05-12T09:44:40.936Z,56.87
2023-05-12T09:47:08.287Z,57.20
2023-05-12T09:49:34.803Z,56.77
2023-05-12T09:52:01.550Z,56.05
2023-05-12T09:54:29.423Z,56.56
2023-05-12T09:56:59.734Z,56.44
2023-05-12T09:59:34.185Z,56.19
2023-05-12T10:02:05.554Z,54.87
2023-05-12T10:04:40.205Z,54.41
2023-05-12T10:07:10.051Z,54.44
2023-05-12T10:09:42.387Z,53.43
2023-05-12T10:12:10.028Z,53.17
2023-05-12T10:14:37.358Z,54.51
2023-05-12T10:17:06.989Z,54.30
2023-05-12T10:19:35.968Z,54.23
2023-05-12T10:22:04.022Z,54.58
2023-05-12T10:24:30.659Z,55.20
2023-05-12T10:26:59.412Z,55.86
2023-05-12T10:29:30.502Z,55.93
2023-05-12T10:31:57.979Z,56.50
2023-05-12T10:34:30.410Z,56.36
2023-05-12T10:36:58.341Z,57.42
2023-05-12T10:39:29.764Z,57.31
2023-05-12T10:42:08.687Z,58.12
2023-05-12T10:44:36.767Z,59.16
2023-05-12T10:47:13.788Z,59.98
2023-05-12T10:49:41.903Z,60.51
2023-05-12T10:52:11.553Z,61.04
2023-05-12T10:54:44.243Z,62.28
2023-05-12T10:57:18.506Z,62.37
2023-05-12T10:59:57.646Z,63.17
2023-05-12T11:02:30.992Z,63.03
2023-05-12T11:05:00.874Z,62.09
2023-05-12T11:07:30.502Z,63.15
2023-05-12T11:10:01.539Z,63.83
2023-05-12T11:12:34.011Z,62.33
2023-05-12T11:15:01.512Z,61.95
2023-05-12T11:17:28.272Z,61.00
2023-05-12T11:19:55.611Z,61.50
2023-05-12T11:22:23.395Z,60.14
2023-05-12T11:24:51.145Z,60.38
2023-05-12T11:27:19.909Z,59.39
2023-05-12T11:29:59.717Z,59.81
2023-05-12T11:32:27.108Z,60.26
2023-05-12T11:34:53.781Z,61.53
2023-05-12T11:37:21.388Z,61.19
2023-05-12T11:39:48.510Z,60.50
2023-05-12T11:42:17.006Z,61.03
2023-05-12T11:44:50.444Z,60.67
2023-05-12T11:47:19.099Z,60.40
2023-05-12T11:49:54.831Z,59.23
2023-05-12T11:52:23.152Z,59.26
2023-05-12T11:55:06.059Z,58.33
2023-05-12T11:57:36.138Z,58.84
2023-05-12T12:00:08.002Z,58.55
2023-05-12T12:02:35.937Z,58.30
2023-05-12T12:05:03.087Z,58.77
2023-05-12T12:07:31.773Z,58.86
2023-05-12T12:09:58.840Z,57.74
2023-05-12T12:12:25.634Z,57.87
2023-05-12T12:14:52.186Z,56.93
2023-05-12T12:17:18.732Z,57.19
2023-05-12T12:19:47.827Z,57.19
2023-05-12T12:22:14.523Z,58.75
2023-05-12T12:24:41.048Z,59.91
2023-05-12T12:27:07.668Z,59.56
2023-05-12T12:29:34.285Z,60.19
2023-05-12T12:32:00.834Z,57.81
2023-05-12T12:34:27.392Z,58.19
2023-05-12T12:36:53.987Z,57.61
2023-05-12T12:39:21.832Z,57.96
2023-05-12T12:41:48.437Z,57.99
2023-05-12T12:44:15.092Z,58.50
2023-05-12T12:46:42.049Z,58.19
2023-05-12T12:49:08.591Z,57.62
2023-05-12T12:51:44.921Z,57.27
2023-05-12T12:54:11.947Z,56.89
2023-05-12T12:56:38.455Z,56.61
2023-05-12T12:59:04.971Z,56.84
2023-05-12T13:01:33.963Z,55.84
2023-05-12T13:04:01.205Z,54.82
2023-05-12T13:06:27.759Z,54.20
2023-05-12T13:08:54.258Z,53.51
2023-05-12T13:11:20.901Z,53.12
2023-05-12T13:13:47.457Z,52.45
2023-05-12T13:16:14.078Z,51.78
2023-05-12T13:18:40.736Z,51.28
2023-05-12T13:21:07.371Z,50.30
2023-05-12T13:23:33.890Z,50.19
2023-05-12T13:26:00.561Z,48.85
2023-05-12T13:28:27.088Z,48.28
2023-05-12T13:30:53.798Z,47.75
2023-05-12T13:33:20.520Z,47.46
2023-05-12T13:35:47.075Z,47.07
2023-05-12T13:38:13.822Z,49.61
2023-05-12T13:40:41.577Z,52.40
2023-05-12T13:43:08.532Z,54.81
2023-05-12T13:45:35.074Z,55.86
2023-05-12T13:48:01.680Z,57.25
2023-05-12T13:50:33.324Z,59.01
2023-05-12T13:53:00.048Z,60.28
2023-05-12T13:55:27.199Z,60.84
2023-05-12T13:57:53.930Z,61.20
2023-05-12T14:00:20.666Z,61.61
2023-05-12T14:02:47.374Z,61.68
2023-05-12T14:05:14.010Z,62.69
2023-05-12T14:07:42.607Z,62.47
2023-05-12T14:10:10.057Z,63.02
2023-05-12T14:12:37.128Z,63.66
2023-05-12T14:15:19.953Z,63.56
2023-05-12T14:17:50.833Z,63.60
2023-05-12T14:20:17.440Z,64.26
2023-05-12T14:22:43.957Z,62.32
2023-05-12T14:25:10.640Z,63.22
2023-05-12T14:27:37.574Z,64.38
2023-05-12T14:30:05.902Z,65.83
2023-05-12T14:32:34.283Z,67.89
2023-05-12T14:35:01.004Z,68.97
2023-05-12T14:37:27.577Z,69.86
2023-05-12T14:39:56.737Z,70.84
2023-05-12T14:42:23.794Z,71.21
2023-05-12T14:44:50.368Z,72.70
2023-05-12T14:47:16.931Z,72.30
2023-05-12T14:49:45.434Z,72.87
2023-05-12T14:52:12.321Z,73.20
2023-05-12T14:54:38.871Z,71.95
2023-05-12T14:57:05.934Z,71.38
2023-05-12T14:59:32.800Z,71.13
2023-05-12T15:01:59.536Z,71.59
2023-05-12T15:04:27.224Z,71.66
2023-05-12T15:06:53.836Z,69.53
2023-05-12T15:09:20.398Z,69.17
2023-05-12T15:11:46.954Z,67.30
2023-05-12T15:14:13.659Z,67.29
2023-05-12T15:16:40.272Z,66.64
2023-05-12T15:19:07.028Z,66.41
2023-05-12T15:21:34.836Z,65.18
2023-05-12T15:24:02.211Z,64.42
2023-05-12T15:26:33.583Z,65.00
2023-05-12T15:29:01.953Z,65.59
2023-05-12T15:31:29.932Z,67.07
2023-05-12T15:33:57.196Z,66.33
2023-05-12T15:36:24.234Z,66.91
2023-05-12T15:38:50.815Z,66.98
2023-05-12T15:41:17.776Z,67.19
2023-05-12T15:43:44.394Z,66.80
2023-05-12T15:46:11.639Z,67.21
2023-05-12T15:48:39.295Z,67.22
2023-05-12T15:51:06.953Z,68.22
2023-05-12T15:53:33.834Z,66.77
2023-05-12T15:56:01.609Z,66.05
2023-05-12T15:58:28.682Z,63.48
2023-05-12T16:00:56.215Z,63.09
2023-05-12T16:03:23.868Z,62.25
2023-05-12T16:05:50.910Z,62.29
2023-05-12T16:08:17.614Z,61.55
2023-05-12T16:10:44.365Z,59.13
2023-05-12T16:13:10.989Z,58.62
2023-05-12T16:15:37.546Z,57.51
2023-05-12T16:18:05.931Z,55.14
2023-05-12T16:20:34.406Z,55.48
2023-05-12T16:23:01.065Z,55.85
2023-05-12T16:25:27.598Z,55.04
2023-05-12T16:27:54.114Z,55.81
2023-05-12T16:30:20.983Z,55.72
2023-05-12T16:32:47.690Z,55.96
2023-05-12T16:35:14.567Z,56.55
2023-05-12T16:37:41.434Z,56.97
2023-05-12T16:40:09.519Z,57.46
2023-05-12T16:42:36.671Z,57.77
2023-05-12T16:45:03.549Z,58.08
2023-05-12T16:47:30.213Z,58.78
2023-05-12T16:49:58.209Z,58.30
2023-05-12T16:52:25.925Z,57.52
2023-05-12T16:54:53.195Z,57.28
2023-05-12T16:57:20.259Z,57.14
2023-05-12T16:59:48.419Z,57.71
2023-05-12T17:02:15.529Z,55.39
2023-05-12T17:04:42.600Z,53.15
2023-05-12T17:07:09.763Z,52.24
2023-05-12T17:09:36.710Z,51.12
2023-05-12T17:12:04.680Z,51.48
2023-05-12T17:14:31.368Z,52.38
2023-05-12T17:16:58.003Z,53.30
2023-05-12T17:19:24.734Z,54.10
2023-05-12T17:21:51.442Z,54.54
2023-05-12T17:24:18.124Z,53.77
2023-05-12T17:26:45.016Z,53.39
2023-05-12T17:29:12.005Z,53.79
2023-05-12T17:31:38.863Z,53.33
2023-05-12T17:34:05.836Z,53.63
2023-05-12T17:36:33.001Z,53.81
2023-05-12T17:39:00.060Z,54.20
2023-05-12T17:41:29.005Z,54.71
2023-05-12T17:43:55.859Z,55.55
2023-05-12T17:46:23.075Z,55.66
2023-05-12T17:48:49.836Z,56.76
2023-05-12T17:51:17.043Z,56.48
2023-05-12T17:53:43.761Z,57.82
2023-05-12T17:56:10.488Z,58.90
2023-05-12T17:58:37.107Z,59.23
2023-05-12T18:01:03.890Z,60.01
2023-05-12T18:03:30.520Z,60.20
2023-05-12T18:05:57.132Z,59.92
2023-05-12T18:08:23.785Z,60.35
2023-05-12T18:10:51.158Z,60.41
2023-05-12T18:13:17.746Z,60.94
2023-05-12T18:15:44.537Z,61.13
2023-05-12T18:18:11.278Z,61.46
2023-05-12T18:20:38.112Z,62.15
2023-05-12T18:23:04.831Z,61.80
2023-05-12T18:25:31.360Z,63.38
2023-05-12T18:27:58.024Z,64.00
2023-05-12T18:30:24.602Z,64.39
2023-05-12T18:32:51.271Z,65.54
2023-05-12T18:35:18.064Z,65.16
2023-05-12T18:37:44.953Z,65.54
2023-05-12T18:40:12.169Z,66.28
2023-05-12T18:42:38.978Z,66.47
2023-05-12T18:45:06.321Z,67.15
2023-05-12T18:47:33.584Z,67.08
2023-05-12T18:50:00.256Z,67.23
2023-05-12T18:52:26.888Z,68.34
2023-05-12T18:54:53.412Z,68.56
2023-05-12T18:57:19.999Z,68.91
2023-05-12T18:59:46.525Z,68.84
2023-05-12T19:02:13.132Z,69.49
2023-05-12T19:04:39.758Z,69.36
2023-05-12T19:07:09.924Z,69.67
2023-05-12T19:09:37.066Z,69.89
2023-05-12T19:12:05.971Z,70.31
2023-05-12T19:14:32.817Z,70.70
2023-05-12T19:16:59.403Z,70.53
2023-05-12T19:19:26.027Z,71.01
2023-05-12T19:21:52.573Z,71.28
2023-05-12T19:24:19.512Z,71.16
2023-05-12T19:26:46.248Z,71.87
2023-05-12T19:29:12.792Z,71.40
2023-05-12T19:31:39.517Z,71.84
2023-05-12T19:34:06.296Z,72.24
2023-05-12T19:36:33.019Z,71.77
2023-05-12T19:39:00.452Z,72.08
2023-05-12T19:41:30.945Z,72.03
2023-05-12T19:43:57.460Z,72.29
2023-05-12T19:46:24.177Z,72.35
2023-05-12T19:48:52.743Z,72.88
2023-05-12T19:51:19.334Z,72.79
2023-05-12T19:53:45.871Z,72.91
2023-05-12T19:56:12.434Z,72.52
2023-05-12T19:58:40.067Z,72.66
2023-05-12T20:01:06.817Z,72.98
2023-05-12T20:03:33.551Z,73.14
2023-05-12T20:06:00.187Z,72.76
2023-05-12T20:08:26.710Z,72.80
2023-05-12T20:10:53.272Z,72.71
2023-05-12T20:13:19.820Z,72.98
2023-05-12T20:15:46.804Z,72.80
2023-05-12T20:18:15.579Z,72.75
2023-05-12T20:20:43.155Z,72.80
2023-05-12T20:23:09.893Z,72.94
2023-05-12T20:25:36.667Z,73.31
2023-05-12T20:28:03.289Z,73.02
2023-05-12T20:30:30.034Z,73.22
2023-05-12T20:32:56.669Z,73.17
2023-05-12T20:35:23.475Z,72.99
2023-05-12T20:37:50.700Z,73.18
2023-05-12T20:40:17.486Z,73.59
2023-05-12T20:42:49.020Z,73.48
2023-05-12T20:45:16.353Z,73.56
2023-05-12T20:47:42.943Z,73.44
2023-05-12T20:50:10.806Z,73.60
2023-05-12T20:52:38.803Z,73.49
2023-05-12T20:55:06.878Z,73.00
2023-05-12T20:57:33.820Z,73.30
2023-05-12T21:00:00.609Z,72.96
2023-05-12T21:02:29.032Z,72.99
2023-05-12T21:04:56.087Z,72.81
2023-05-12T21:07:22.646Z,73.06
2023-05-12T21:09:49.281Z,73.19
2023-05-12T21:12:16.091Z,73.09
2023-05-12T21:14:43.866Z,73.19
2023-05-12T21:17:11.194Z,73.27
2023-05-12T21:19:39.272Z,73.26
2023-05-12T21:22:07.324Z,73.37
2023-05-12T21:24:33.929Z,73.51
2023-05-12T21:27:04.727Z,73.83
2023-05-12T21:29:32.347Z,73.52
2023-05-12T21:31:59.267Z,73.96
2023-05-12T21:34:26.380Z,73.60
2023-05-12T21:36:53.109Z,74.16
2023-05-12T21:39:19.672Z,74.25
2023-05-12T21:41:46.517Z,74.69
2023-05-12T21:44:13.092Z,75.40
2023-05-12T21:46:40.013Z,75.49
2023-05-12T21:49:06.672Z,75.72
2023-05-12T21:51:33.366Z,75.70
2023-05-12T21:54:00.758Z,76.40
2023-05-12T21:56:27.268Z,76.16
2023-05-12T21:58:53.870Z,76.37
2023-05-12T22:01:20.531Z,76.40
2023-05-12T22:03:47.205Z,76.22
2023-05-12T22:06:13.840Z,76.45
2023-05-12T22:08:40.389Z,77.07
2023-05-12T22:11:07.000Z,76.47
2023-05-12T22:13:33.682Z,76.54
2023-05-12T22:16:00.309Z,76.37
2023-05-12T22:18:27.510Z,76.53
2023-05-12T22:20:54.157Z,76.76
2023-05-12T22:23:20.916Z,75.94
2023-05-12T22:25:47.463Z,76.04
2023-05-12T22:28:14.059Z,76.10
2023-05-12T22:30:41.893Z,75.64
2023-05-12T22:33:08.681Z,76.12
2023-05-12T22:35:35.372Z,75.81
2023-05-12T22:38:01.990Z,76.31
2023-05-12T22:40:29.188Z,76.40
2023-05-12T22:42:55.751Z,76.70
2023-05-12T22:45:22.327Z,76.89
2023-05-12T22:47:49.056Z,76.97
2023-05-12T22:50:16.147Z,77.36
2023-05-12T22:52:42.843Z,77.60
2023-05-12T22:55:10.099Z,77.41
2023-05-12T22:57:38.726Z,77.79
2023-05-12T23:00:06.465Z,77.56
2023-05-12T23:02:33.165Z,78.08
2023-05-12T23:04:59.829Z,77.91
2023-05-12T23:07:26.516Z,78.44
2023-05-12T23:09:53.055Z,78.24
2023-05-12T23:12:19.608Z,78.73
2023-05-12T23:14:46.180Z,78.65
2023-05-12T23:17:12.835Z,78.99
2023-05-12T23:19:40.205Z,79.05
2023-05-12T23:22:06.950Z,79.23
2023-05-12T23:24:34.159Z,79.32
2023-05-12T23:27:00.901Z,78.96
2023-05-12T23:29:27.579Z,79.26
2023-05-12T23:31:54.129Z,79.46
2023-05-12T23:34:20.863Z,79.17
2023-05-12T23:36:47.497Z,79.95
2023-05-12T23:39:14.041Z,79.56
2023-05-12T23:41:40.635Z,80.41
2023-05-12T23:44:07.260Z,80.32
2023-05-12T23:46:34.173Z,80.35
2023-05-12T23:49:01.009Z,80.20
2023-05-12T23:51:28.547Z,80.85
2023-05-12T23:53:55.274Z,80.36
2023-05-12T23:56:22.399Z,80.75
2023-05-12T23:58:49.258Z,81.03
